Time;durP1;ratioP1;P1;durP2;ratioP2;P2;SDS_P1;SDS_P2;PMS_P1;PMS_P2;Temp;Humidity;BMP_temperature;BMP_pressure;BME280_temperature;BME280_humidity;BME280_pressure;Samples;Min_cycle;Max_cycle;Signal;HPM_P1;HPM_P2
2023/12/02 00:00:50;;;;;;;44.42;15.98;;;;;;;1.24;67.10;101259.00;5031086;28;20091;-46
2023/12/02 00:03:16;;;;;;;45.60;16.02;;;;;;;1.36;67.16;101259.69;5030216;28;20064;-51
2023/12/02 00:05:41;;;;;;;46.35;16.40;;;;;;;1.79;66.11;101256.94;5031075;28;20394;-48
2023/12/02 00:08:06;;;;;;;44.05;16.27;;;;;;;1.92;66.04;101243.94;5029496;28;20052;-46
2023/12/02 00:10:31;;;;;;;44.50;16.48;;;;;;;2.04;65.98;101244.59;5029491;28;20030;-46
2023/12/02 00:12:57;;;;;;;46.03;15.70;;;;;;;2.15;65.72;101237.44;5029625;28;20072;-46
2023/12/02 00:15:22;;;;;;;42.88;15.68;;;;;;;2.24;66.16;101235.38;5029024;28;20112;-45
2023/12/02 00:17:48;;;;;;;48.60;16.02;;;;;;;2.42;65.91;101232.06;5029390;28;20048;-45
2023/12/02 00:20:13;;;;;;;47.72;16.55;;;;;;;2.43;65.28;101228.69;5028742;28;20116;-44
2023/12/02 00:22:39;;;;;;;42.75;15.93;;;;;;;2.44;65.56;101224.41;5029847;28;20039;-50
2023/12/02 00:25:04;;;;;;;47.20;16.33;;;;;;;2.43;65.28;101214.94;5029230;28;20112;-47
2023/12/02 00:27:29;;;;;;;42.75;15.48;;;;;;;2.54;64.93;101216.34;5030001;28;20144;-46
2023/12/02 00:29:55;;;;;;;43.47;15.80;;;;;;;2.43;65.49;101246.69;5030670;28;20037;-50
2023/12/02 00:32:20;;;;;;;51.80;16.73;;;;;;;2.25;65.26;101243.16;5029172;28;20029;-46
2023/12/02 00:34:45;;;;;;;44.80;15.82;;;;;;;2.61;65.53;101239.03;5029265;28;20133;-46
2023/12/02 00:37:12;;;;;;;49.83;16.60;;;;;;;2.74;64.80;101238.84;5028786;28;20067;-46
2023/12/02 00:39:37;;;;;;;47.40;16.23;;;;;;;2.69;65.04;101239.41;5028584;28;20022;-45
2023/12/02 00:42:02;;;;;;;43.80;15.93;;;;;;;2.65;64.52;101229.75;5029989;28;20040;-43
2023/12/02 00:44:28;;;;;;;44.85;15.55;;;;;;;2.21;65.57;101224.91;5033128;28;20459;-47
2023/12/02 00:46:53;;;;;;;42.38;14.60;;;;;;;2.53;65.40;101230.03;5032876;28;20041;-47
2023/12/02 00:49:18;;;;;;;42.97;15.63;;;;;;;2.69;64.11;101234.25;5032234;28;20064;-48
2023/12/02 00:51:43;;;;;;;41.75;14.88;;;;;;;2.87;64.56;101237.75;5032376;28;20034;-46
2023/12/02 00:54:09;;;;;;;43.35;15.65;;;;;;;2.42;64.15;101233.75;5032010;28;20034;-45
2023/12/02 00:56:34;;;;;;;46.00;15.10;;;;;;;2.41;66.02;101243.16;5033044;28;20025;-46
2023/12/02 00:58:59;;;;;;;46.80;16.20;;;;;;;2.33;65.27;101234.13;5032206;28;20049;-46
2023/12/02 01:01:25;;;;;;;45.08;16.20;;;;;;;2.31;65.67;101234.88;5032040;28;21147;-46
2023/12/02 01:03:50;;;;;;;44.90;15.55;;;;;;;2.62;64.93;101238.22;5032334;28;20041;-45
2023/12/02 01:06:15;;;;;;;46.55;16.02;;;;;;;2.65;64.92;101229.75;5032064;28;20033;-45
2023/12/02 01:08:41;;;;;;;44.08;16.00;;;;;;;2.82;64.05;101224.66;5032352;28;20040;-49
2023/12/02 01:11:06;;;;;;;43.00;15.57;;;;;;;2.41;64.75;101226.81;5031445;28;20044;-45
2023/12/02 01:13:31;;;;;;;38.15;14.90;;;;;;;2.42;65.39;101232.06;5032245;28;20037;-46
2023/12/02 01:15:57;;;;;;;45.97;15.82;;;;;;;2.30;64.60;101222.81;5032227;28;20084;-53
2023/12/02 01:18:22;;;;;;;42.90;15.27;;;;;;;2.41;65.03;101229.41;5031845;28;20092;-46
2023/12/02 01:20:48;;;;;;;45.58;15.68;;;;;;;2.64;64.14;101234.03;5030414;28;20120;-44
2023/12/02 01:23:13;;;;;;;43.17;14.88;;;;;;;2.77;64.09;101236.41;5031761;28;20516;-48
2023/12/02 01:25:38;;;;;;;39.70;15.00;;;;;;;2.40;64.25;101230.19;5032074;28;20703;-46
2023/12/02 01:28:04;;;;;;;42.55;14.30;;;;;;;2.56;63.95;101237.88;5030478;28;20049;-49
2023/12/02 01:30:29;;;;;;;38.45;14.05;;;;;;;2.67;64.08;101236.78;5032111;28;20037;-45
2023/12/02 01:32:55;;;;;;;39.30;14.57;;;;;;;2.69;63.94;101234.25;5032431;28;20113;-43
2023/12/02 01:35:20;;;;;;;38.78;14.13;;;;;;;2.88;64.38;101238.63;5031463;28;20211;-44
2023/12/02 01:37:45;;;;;;;42.60;14.93;;;;;;;3.00;63.52;101228.94;5032034;28;20080;-46
2023/12/02 01:40:12;;;;;;;38.13;14.27;;;;;;;3.00;63.43;101244.38;5030421;28;20209;-44
2023/12/02 01:42:38;;;;;;;45.13;14.32;;;;;;;3.03;63.11;101232.56;5033000;28;20072;-48
2023/12/02 01:45:04;;;;;;;44.05;14.95;;;;;;;3.09;63.41;101231.97;5031494;28;20033;-44
2023/12/02 01:47:29;;;;;;;41.00;14.98;;;;;;;2.65;63.61;101238.38;5032108;28;20080;-46
2023/12/02 01:49:56;;;;;;;38.10;13.68;;;;;;;2.69;64.20;101232.56;5031340;28;20044;-47
2023/12/02 01:52:22;;;;;;;36.60;13.85;;;;;;;3.02;64.17;101223.06;5031204;28;20045;-48
2023/12/02 01:54:47;;;;;;;44.80;14.43;;;;;;;2.90;63.72;101226.72;5031665;28;20049;-46
2023/12/02 01:57:13;;;;;;;44.15;14.75;;;;;;;2.88;63.30;101229.22;5031245;28;20555;-47
2023/12/02 01:59:49;;;;;;;41.97;14.88;;;;;;;2.79;63.87;101227.09;5031380;28;20037;-45
2023/12/02 02:02:14;;;;;;;40.92;14.32;;;;;;;2.84;63.81;101228.19;5031403;28;20045;-46
2023/12/02 02:04:39;;;;;;;39.75;14.38;;;;;;;3.11;63.86;101215.78;5031301;28;20033;-47
2023/12/02 02:07:05;;;;;;;47.75;15.18;;;;;;;3.21;62.47;101206.81;5031134;28;20065;-51
2023/12/02 02:09:34;;;;;;;41.08;14.70;;;;;;;3.28;62.91;101223.44;5031422;28;20530;-45
2023/12/02 02:12:00;;;;;;;44.40;15.02;;;;;;;3.34;62.29;101224.63;5031431;28;20076;-45
2023/12/02 02:14:25;;;;;;;41.28;14.18;;;;;;;3.35;62.90;101220.34;5031524;28;20030;-47
2023/12/02 02:16:50;;;;;;;35.20;13.73;;;;;;;3.14;62.75;101226.25;5031650;28;20400;-44
2023/12/02 02:19:17;;;;;;;41.13;14.95;;;;;;;3.06;63.30;101222.41;5031137;28;20061;-44
2023/12/02 02:21:43;;;;;;;42.30;14.32;;;;;;;3.32;62.44;101228.81;5031420;28;20035;-46
2023/12/02 02:24:08;;;;;;;39.15;14.68;;;;;;;3.44;62.92;101231.97;5030398;28;20570;-46
2023/12/02 02:26:33;;;;;;;39.35;14.25;;;;;;;3.50;62.82;101221.06;5029385;28;20042;-47
2023/12/02 02:28:59;;;;;;;43.25;15.50;;;;;;;3.37;62.09;101218.72;5030745;28;20041;-44
2023/12/02 02:31:24;;;;;;;38.47;14.90;;;;;;;3.40;62.09;101235.22;5030087;28;20042;-48
2023/12/02 02:33:49;;;;;;;42.85;14.80;;;;;;;3.41;61.30;101228.38;5030958;28;20107;-46
2023/12/02 02:36:15;;;;;;;41.58;14.82;;;;;;;3.43;61.76;101237.03;5030249;28;20411;-46
2023/12/02 02:38:40;;;;;;;40.45;15.13;;;;;;;3.38;61.63;101231.69;5030999;28;20052;-45
2023/12/02 02:41:06;;;;;;;41.80;14.65;;;;;;;3.43;61.87;101231.91;5030223;28;20571;-46
2023/12/02 02:43:31;;;;;;;45.25;15.40;;;;;;;3.31;61.55;101229.63;5030364;28;20033;-47
2023/12/02 02:45:56;;;;;;;40.78;14.68;;;;;;;3.32;61.83;101230.50;5030692;28;20400;-46
2023/12/02 02:48:21;;;;;;;42.65;14.55;;;;;;;3.23;61.72;101233.53;5029791;28;20059;-47
2023/12/02 02:50:47;;;;;;;41.97;14.75;;;;;;;3.21;61.68;101242.88;5030754;28;20068;-49
2023/12/02 02:53:12;;;;;;;39.95;15.45;;;;;;;3.26;61.27;101243.97;5031083;28;20056;-45
2023/12/02 02:55:37;;;;;;;43.28;14.27;;;;;;;3.21;61.60;101240.31;5031116;28;20029;-48
2023/12/02 02:58:03;;;;;;;39.22;14.65;;;;;;;3.02;62.06;101242.78;5031490;28;20037;-44
2023/12/02 03:00:28;;;;;;;38.97;13.98;;;;;;;2.92;61.46;101238.00;5029837;28;20061;-44
2023/12/02 03:02:53;;;;;;;39.72;14.45;;;;;;;2.87;61.26;101240.31;5030438;28;20436;-46
2023/12/02 03:05:19;;;;;;;42.97;15.23;;;;;;;2.68;61.86;101243.69;5029295;28;20037;-47
2023/12/02 03:07:44;;;;;;;41.08;14.52;;;;;;;2.59;63.09;101242.31;5030861;28;20033;-45
2023/12/02 03:10:09;;;;;;;42.60;13.90;;;;;;;2.69;62.05;101245.44;5030331;28;20565;-46
2023/12/02 03:12:35;;;;;;;40.10;14.85;;;;;;;2.67;61.38;101236.78;5031974;28;20124;-45
2023/12/02 03:15:00;;;;;;;41.08;14.63;;;;;;;2.59;61.58;101240.63;5031986;28;20128;-48
2023/12/02 03:17:25;;;;;;;40.80;14.65;;;;;;;2.57;61.99;101249.06;5032030;28;20042;-45
2023/12/02 03:19:52;;;;;;;43.55;14.65;;;;;;;2.54;61.87;101242.09;5030739;28;20121;-46
2023/12/02 03:22:17;;;;;;;39.63;14.48;;;;;;;2.50;61.81;101236.72;5030804;28;20441;-46
2023/12/02 03:24:42;;;;;;;41.25;14.68;;;;;;;2.50;62.00;101237.56;5031586;28;20025;-52
2023/12/02 03:27:08;;;;;;;43.88;14.93;;;;;;;2.49;62.10;101238.41;5030805;28;20065;-46
2023/12/02 03:29:33;;;;;;;40.53;14.82;;;;;;;2.47;62.53;101236.53;5032372;28;20042;-46
2023/12/02 03:31:58;;;;;;;48.45;15.85;;;;;;;2.08;64.38;101233.66;5031571;28;20107;-45
2023/12/02 03:34:23;;;;;;;46.35;15.52;;;;;;;2.10;65.05;101226.03;5029954;28;20033;-47
2023/12/02 03:36:49;;;;;;;46.40;15.75;;;;;;;2.41;63.77;101229.41;5029940;28;20101;-48
2023/12/02 03:39:15;;;;;;;50.47;15.82;;;;;;;2.23;63.76;101229.34;5029118;28;20128;-46
2023/12/02 03:41:41;;;;;;;48.08;16.15;;;;;;;2.30;63.71;101225.41;5030062;28;20042;-45
2023/12/02 03:44:06;;;;;;;48.88;16.40;;;;;;;2.35;62.58;101229.09;5029452;28;20030;-45
2023/12/02 03:46:34;;;;;;;44.78;15.68;;;;;;;2.35;62.62;101232.53;5029824;28;20040;-46
2023/12/02 03:49:00;;;;;;;44.20;15.43;;;;;;;2.11;63.45;101238.97;5029225;28;20049;-45
2023/12/02 03:51:25;;;;;;;50.10;17.27;;;;;;;1.80;65.51;101243.28;5030200;28;20026;-47
2023/12/02 03:53:50;;;;;;;51.53;16.85;;;;;;;2.07;65.68;101241.31;5030617;28;20038;-47
2023/12/02 03:56:16;;;;;;;47.95;15.88;;;;;;;2.23;63.04;101247.34;5027936;28;20044;-46
2023/12/02 03:58:41;;;;;;;40.60;15.15;;;;;;;2.27;63.43;101245.81;5028362;28;20423;-49
2023/12/02 04:01:06;;;;;;;46.70;15.98;;;;;;;2.25;62.99;101248.31;5029175;28;20037;-48
2023/12/02 04:03:33;;;;;;;46.90;15.93;;;;;;;2.21;63.90;101251.50;5029582;28;20064;-48
2023/12/02 04:05:58;;;;;;;47.65;15.57;;;;;;;2.22;62.53;101252.41;5029855;28;20407;-46
2023/12/02 04:08:23;;;;;;;45.13;15.25;;;;;;;2.20;63.00;101249.72;5029343;28;20120;-46
2023/12/02 04:10:49;;;;;;;46.50;15.13;;;;;;;2.17;62.98;101261.56;5027942;28;20124;-47
2023/12/02 04:13:14;;;;;;;47.75;16.23;;;;;;;2.06;64.25;101258.44;5028862;28;20034;-49
2023/12/02 04:15:40;;;;;;;46.53;16.42;;;;;;;2.14;63.26;101263.97;5029915;28;20492;-46
2023/12/02 04:18:06;;;;;;;42.75;15.45;;;;;;;2.13;63.47;101262.22;5032955;28;20045;-46
2023/12/02 04:20:32;;;;;;;45.90;14.80;;;;;;;2.12;63.12;101266.47;5033032;28;20488;-46
2023/12/02 04:22:57;;;;;;;49.08;15.50;;;;;;;2.09;63.06;101271.44;5033704;28;20057;-46
2023/12/02 04:25:23;;;;;;;49.10;15.82;;;;;;;2.07;63.04;101272.19;5032664;28;20122;-47
2023/12/02 04:27:48;;;;;;;46.35;15.75;;;;;;;2.07;63.10;101264.47;5032911;28;20045;-49
2023/12/02 04:30:14;;;;;;;50.85;17.10;;;;;;;2.01;64.07;101265.88;5032060;28;20045;-46
2023/12/02 04:32:39;;;;;;;48.13;15.95;;;;;;;2.03;63.92;101263.41;5032813;28;20120;-47
2023/12/02 04:35:05;;;;;;;48.47;15.77;;;;;;;1.96;64.29;101274.16;5032219;28;20033;-45
2023/12/02 04:37:31;;;;;;;47.00;16.60;;;;;;;2.03;64.06;101271.09;5032699;28;20041;-48
2023/12/02 04:39:56;;;;;;;51.08;16.33;;;;;;;2.08;63.85;101273.91;5032914;28;20037;-46
2023/12/02 04:42:22;;;;;;;50.67;15.93;;;;;;;2.15;64.17;101270.88;5032434;28;20041;-49
2023/12/02 04:44:47;;;;;;;45.95;15.88;;;;;;;2.14;64.11;101274.25;5033058;28;20067;-46
2023/12/02 04:47:12;;;;;;;50.33;16.60;;;;;;;2.13;64.26;101277.66;5032107;28;20045;-48
2023/12/02 04:49:37;;;;;;;52.15;17.60;;;;;;;2.17;64.02;101279.56;5031169;28;20037;-50
2023/12/02 04:52:04;;;;;;;53.55;16.38;;;;;;;2.12;64.18;101274.19;5032189;28;20045;-44
2023/12/02 04:54:29;;;;;;;47.63;16.17;;;;;;;2.17;63.35;101280.44;5032618;28;20057;-48
2023/12/02 04:56:55;;;;;;;49.65;16.52;;;;;;;2.09;64.11;101274.00;5032657;28;20068;-46
2023/12/02 04:59:20;;;;;;;52.83;16.52;;;;;;;2.02;64.81;101290.78;5032263;28;20038;-51
2023/12/02 05:01:45;;;;;;;49.35;15.88;;;;;;;2.10;64.05;101292.91;5032611;28;20033;-45
2023/12/02 05:04:11;;;;;;;46.95;15.55;;;;;;;2.09;63.84;101292.00;5032054;28;20048;-47
2023/12/02 05:06:36;;;;;;;52.30;16.48;;;;;;;2.07;64.34;101293.63;5032483;28;20446;-45
2023/12/02 05:09:02;;;;;;;43.45;15.63;;;;;;;2.09;64.47;101296.25;5032510;28;20125;-47
2023/12/02 05:11:27;;;;;;;52.25;15.73;;;;;;;2.06;64.06;101302.16;5032172;28;20057;-47
2023/12/02 05:13:53;;;;;;;52.10;16.27;;;;;;;2.06;63.60;101306.41;5032745;28;20500;-51
2023/12/02 05:16:18;;;;;;;46.65;16.20;;;;;;;1.90;64.73;101317.53;5032195;28;20052;-47
2023/12/02 05:18:44;;;;;;;50.65;15.95;;;;;;;1.89;65.71;101314.06;5032765;28;20036;-46
2023/12/02 05:21:09;;;;;;;47.08;16.02;;;;;;;1.82;65.98;101303.38;5032782;28;20039;-48
2023/12/02 05:23:35;;;;;;;48.65;16.52;;;;;;;2.05;64.41;101305.53;5034252;28;20488;-45
2023/12/02 05:26:01;;;;;;;47.00;16.38;;;;;;;2.02;64.07;101306.22;5033788;28;20099;-46
2023/12/02 05:28:27;;;;;;;54.70;16.40;;;;;;;2.02;64.11;101307.91;5031823;28;20029;-49
2023/12/02 05:30:52;;;;;;;48.80;16.85;;;;;;;1.92;64.80;101319.38;5032543;28;20113;-46
2023/12/02 05:33:17;;;;;;;43.22;15.93;;;;;;;1.96;64.04;101317.84;5032108;28;20471;-51
2023/12/02 05:35:43;;;;;;;44.10;15.93;;;;;;;1.88;64.76;101320.03;5032073;28;20037;-45
2023/12/02 05:38:08;;;;;;;50.50;16.15;;;;;;;1.72;65.56;101324.22;5030338;28;20407;-46
2023/12/02 05:40:34;;;;;;;57.25;17.35;;;;;;;1.71;66.30;101330.19;5032081;28;20124;-49
2023/12/02 05:42:59;;;;;;;50.28;16.02;;;;;;;1.89;64.79;101331.22;5032662;28;20069;-46
2023/12/02 05:45:24;;;;;;;48.25;16.10;;;;;;;1.84;64.48;101322.31;5032165;28;20057;-49
2023/12/02 05:47:50;;;;;;;48.38;16.00;;;;;;;1.70;65.40;101321.59;5032410;28;20200;-47
2023/12/02 05:50:15;;;;;;;45.38;15.73;;;;;;;1.82;65.31;101329.97;5030464;28;20422;-45
2023/12/02 05:52:41;;;;;;;48.67;16.13;;;;;;;1.71;65.36;101323.31;5032686;28;20033;-46
2023/12/02 05:55:07;;;;;;;46.83;16.13;;;;;;;1.81;64.78;101335.03;5031511;28;20038;-48
2023/12/02 05:57:32;;;;;;;50.78;15.95;;;;;;;1.82;64.60;101334.22;5031665;28;20041;-47
2023/12/02 05:59:57;;;;;;;48.75;16.25;;;;;;;1.80;64.02;101338.38;5031658;28;20035;-46
2023/12/02 06:02:22;;;;;;;50.15;17.02;;;;;;;1.63;65.65;101338.34;5031399;28;20041;-50
2023/12/02 06:04:48;;;;;;;42.58;15.52;;;;;;;1.78;64.79;101337.41;5031488;28;20045;-45
2023/12/02 06:07:13;;;;;;;52.03;16.40;;;;;;;1.81;65.19;101341.06;5030839;28;20038;-48
2023/12/02 06:09:43;;;;;;;48.20;16.58;;;;;;;1.76;64.51;101332.22;5030564;28;20033;-48
2023/12/02 06:12:08;;;;;;;52.42;17.00;;;;;;;1.63;65.58;101346.06;5031265;28;20199;-45
2023/12/02 06:14:33;;;;;;;54.53;16.50;;;;;;;1.52;66.94;101343.69;5031952;28;20527;-45
2023/12/02 06:16:59;;;;;;;50.78;16.40;;;;;;;1.71;66.18;101349.03;5032056;28;20060;-45
2023/12/02 06:19:24;;;;;;;43.85;15.60;;;;;;;1.86;65.22;101354.16;5031373;28;20574;-45
2023/12/02 06:21:49;;;;;;;48.78;15.70;;;;;;;1.84;64.55;101354.06;5031400;28;20128;-49
2023/12/02 06:24:15;;;;;;;52.83;17.67;;;;;;;1.61;66.69;101357.94;5030348;28;20033;-44
2023/12/02 06:26:40;;;;;;;51.55;16.92;;;;;;;1.61;66.88;101363.06;5030771;28;20052;-48
2023/12/02 06:29:06;;;;;;;54.67;17.17;;;;;;;1.52;66.63;101360.00;5031416;28;20041;-45
2023/12/02 06:31:33;;;;;;;51.92;16.90;;;;;;;1.66;66.69;101359.84;5031839;28;20075;-50
2023/12/02 06:33:58;;;;;;;52.97;16.88;;;;;;;1.66;66.75;101362.44;5031756;28;20045;-48
2023/12/02 06:36:23;;;;;;;47.28;16.50;;;;;;;1.85;65.49;101360.09;5030276;28;20582;-47
2023/12/02 06:38:49;;;;;;;53.92;17.83;;;;;;;1.77;65.34;101362.22;5028971;28;20578;-47
2023/12/02 06:41:14;;;;;;;53.53;16.73;;;;;;;1.84;65.03;101364.34;5030406;28;20045;-48
2023/12/02 06:43:39;;;;;;;55.10;16.50;;;;;;;1.79;65.02;101359.75;5030986;28;20718;-45
2023/12/02 06:46:05;;;;;;;53.92;17.42;;;;;;;1.77;64.74;101363.94;5030481;28;20048;-46
2023/12/02 06:48:30;;;;;;;50.42;15.98;;;;;;;1.82;64.93;101370.22;5030555;28;20504;-52
2023/12/02 06:50:56;;;;;;;51.80;16.73;;;;;;;1.81;64.69;101368.44;5030554;28;20045;-50
2023/12/02 06:53:21;;;;;;;54.08;17.08;;;;;;;1.76;65.00;101377.59;5029976;28;20052;-49
2023/12/02 06:55:48;;;;;;;49.97;17.20;;;;;;;1.77;65.23;101384.50;5029887;28;20468;-45
2023/12/02 06:58:13;;;;;;;52.60;16.38;;;;;;;1.70;66.07;101387.53;5029926;28;20063;-45
2023/12/02 07:00:39;;;;;;;55.15;16.90;;;;;;;1.60;66.71;101381.84;5029938;28;20057;-46
2023/12/02 07:03:04;;;;;;;47.33;15.85;;;;;;;1.81;65.66;101384.75;5029690;28;20124;-46
2023/12/02 07:05:30;;;;;;;48.25;16.05;;;;;;;1.85;64.54;101391.84;5030376;28;20079;-46
2023/12/02 07:07:56;;;;;;;48.55;15.85;;;;;;;1.85;65.50;101390.94;5029211;28;20080;-45
2023/12/02 07:10:21;;;;;;;52.88;17.33;;;;;;;1.83;65.28;101397.72;5028074;28;20033;-49
2023/12/02 07:12:47;;;;;;;56.25;16.65;;;;;;;1.76;65.12;101399.03;5030382;28;20120;-45
2023/12/02 07:15:12;;;;;;;49.08;17.23;;;;;;;1.76;65.56;101406.75;5029362;28;20057;-44
2023/12/02 07:17:37;;;;;;;50.95;16.73;;;;;;;1.83;64.92;101408.84;5030134;28;20043;-46
2023/12/02 07:20:04;;;;;;;52.28;17.35;;;;;;;1.84;65.08;101410.63;5031018;28;20052;-44
2023/12/02 07:22:29;;;;;;;49.28;16.85;;;;;;;1.82;65.11;101414.81;5030103;28;20030;-46
2023/12/02 07:24:54;;;;;;;56.13;16.98;;;;;;;1.73;65.00;101411.69;5030670;28;20030;-49
2023/12/02 07:27:20;;;;;;;56.08;17.45;;;;;;;1.85;65.42;101411.50;5028177;28;20499;-48
2023/12/02 07:29:45;;;;;;;56.33;17.83;;;;;;;1.99;65.07;101418.31;5029475;28;20132;-44
2023/12/02 07:32:10;;;;;;;51.95;17.75;;;;;;;1.95;65.09;101419.81;5029050;28;20044;-46
2023/12/02 07:34:36;;;;;;;49.75;16.95;;;;;;;1.95;65.76;101418.97;5030336;28;20029;-44
2023/12/02 07:37:02;;;;;;;50.00;17.10;;;;;;;1.90;65.41;101422.94;5029888;28;20037;-45
2023/12/02 07:39:27;;;;;;;52.72;17.27;;;;;;;1.96;65.83;101418.13;5029256;28;20046;-45
2023/12/02 07:41:53;;;;;;;54.92;17.67;;;;;;;2.00;65.56;101422.69;5029785;28;20046;-50
2023/12/02 07:44:18;;;;;;;55.47;17.92;;;;;;;2.02;64.92;101433.91;5029265;28;20482;-46
2023/12/02 07:46:43;;;;;;;54.03;17.23;;;;;;;2.01;64.72;101437.31;5029700;28;20029;-49
2023/12/02 07:49:09;;;;;;;53.60;16.83;;;;;;;2.02;65.20;101437.38;5029323;28;20033;-45
2023/12/02 07:51:34;;;;;;;49.42;16.83;;;;;;;2.04;65.08;101438.34;5031999;28;20057;-44
2023/12/02 07:53:59;;;;;;;56.35;18.23;;;;;;;2.08;65.66;101443.66;5034661;28;20069;-46
2023/12/02 07:56:24;;;;;;;53.85;16.90;;;;;;;2.13;65.43;101452.53;5034605;28;20397;-48
2023/12/02 07:58:50;;;;;;;54.95;18.27;;;;;;;2.14;64.87;101455.16;5033465;28;20140;-46
2023/12/02 08:01:15;;;;;;;52.35;17.60;;;;;;;2.13;65.53;101452.53;5033065;28;20043;-48
2023/12/02 08:03:40;;;;;;;55.15;18.23;;;;;;;2.18;65.57;101458.81;5033351;28;20550;-46
2023/12/02 08:06:06;;;;;;;56.15;18.13;;;;;;;2.25;65.35;101459.25;5032893;28;20044;-49
2023/12/02 08:08:32;;;;;;;59.47;19.33;;;;;;;2.27;65.50;101467.03;5033313;28;20087;-52
2023/12/02 08:10:57;;;;;;;56.65;19.05;;;;;;;2.06;66.80;101466.75;5031854;28;20045;-45
2023/12/02 08:13:23;;;;;;;57.17;19.58;;;;;;;2.09;66.24;101469.47;5032786;28;20108;-48
2023/12/02 08:15:48;;;;;;;63.90;19.73;;;;;;;2.27;66.51;101465.34;5033203;28;20411;-46
2023/12/02 08:18:15;;;;;;;56.00;18.30;;;;;;;2.45;66.20;101460.34;5032668;28;20038;-46
2023/12/02 08:20:40;;;;;;;64.22;19.77;;;;;;;2.52;66.57;101464.13;5033752;28;20082;-49
2023/12/02 08:23:06;;;;;;;59.60;19.67;;;;;;;2.28;67.30;101463.66;5033557;28;20033;-44
2023/12/02 08:25:31;;;;;;;54.20;18.42;;;;;;;2.52;66.41;101471.84;5034481;28;20040;-47
2023/12/02 08:27:57;;;;;;;63.75;19.63;;;;;;;2.76;66.67;101468.03;5033494;28;20415;-45
2023/12/02 08:30:23;;;;;;;65.85;20.75;;;;;;;2.95;66.94;101464.75;5032745;28;20516;-45
2023/12/02 08:32:48;;;;;;;63.20;21.52;;;;;;;2.81;65.97;101476.91;5033158;28;20044;-45
2023/12/02 08:35:13;;;;;;;61.53;21.60;;;;;;;2.65;66.46;101482.03;5032851;28;20038;-45
2023/12/02 08:37:39;;;;;;;70.97;22.65;;;;;;;2.87;66.88;101481.53;5032792;28;20377;-50
2023/12/02 08:40:05;;;;;;;60.45;20.83;;;;;;;3.08;65.56;101478.38;5031302;28;20669;-45
2023/12/02 08:42:30;;;;;;;66.10;21.52;;;;;;;3.00;66.18;101489.06;5032608;28;20040;-45
2023/12/02 08:44:56;;;;;;;65.32;21.92;;;;;;;2.84;67.45;101487.38;5031695;28;20407;-45
2023/12/02 08:47:21;;;;;;;70.28;22.30;;;;;;;3.29;65.55;101486.38;5032235;28;20163;-45
2023/12/02 08:49:46;;;;;;;62.08;21.45;;;;;;;3.77;65.02;101481.94;5032805;28;20403;-46
2023/12/02 08:52:12;;;;;;;68.22;21.90;;;;;;;3.62;64.05;101482.03;5032587;28;20033;-49
2023/12/02 08:54:37;;;;;;;66.60;21.48;;;;;;;3.58;65.06;101488.75;5032660;28;20049;-44
2023/12/02 08:57:02;;;;;;;61.55;20.92;;;;;;;4.00;63.91;101486.53;5032595;28;20034;-45
2023/12/02 08:59:28;;;;;;;65.85;20.83;;;;;;;3.84;63.08;101484.88;5032306;28;20037;-46
2023/12/02 09:01:53;;;;;;;55.80;19.63;;;;;;;3.93;63.79;101490.50;5032350;28;20033;-43
2023/12/02 09:04:19;;;;;;;57.88;19.63;;;;;;;3.90;63.65;101490.38;5031502;28;20044;-52
2023/12/02 09:06:44;;;;;;;54.58;19.58;;;;;;;4.04;63.63;101497.06;5032498;28;20450;-49
2023/12/02 09:09:10;;;;;;;52.50;19.70;;;;;;;3.81;63.93;101492.47;5032179;28;20029;-48
2023/12/02 09:11:35;;;;;;;56.35;20.60;;;;;;;4.18;63.39;101495.19;5032415;28;20040;-45
2023/12/02 09:14:01;;;;;;;57.38;20.15;;;;;;;3.96;63.32;101502.69;5032798;28;20428;-49
2023/12/02 09:16:29;;;;;;;57.35;21.25;;;;;;;3.82;63.55;101509.72;5031844;28;20079;-46
2023/12/02 09:18:55;;;;;;;55.90;20.38;;;;;;;4.20;63.43;101509.06;5031712;28;20564;-45
2023/12/02 09:21:20;;;;;;;56.08;19.77;;;;;;;4.36;63.35;101505.50;5031979;28;20033;-45
2023/12/02 09:23:46;;;;;;;57.58;20.42;;;;;;;4.21;63.24;101515.09;5032632;28;20030;-48
2023/12/02 09:26:29;;;;;;;55.95;20.55;;;;;;;4.02;63.83;101523.63;5031326;28;20040;-47
2023/12/02 09:28:55;;;;;;;55.05;20.05;;;;;;;4.27;63.45;101521.41;5031118;28;20519;-48
2023/12/02 09:31:21;;;;;;;57.63;20.67;;;;;;;4.19;63.73;101521.88;5032021;28;20129;-45
2023/12/02 09:33:54;;;;;;;57.97;21.40;;;;;;;4.32;62.91;101517.41;5032453;28;20120;-46
2023/12/02 09:36:34;;;;;;;70.20;22.23;;;;;;;4.43;63.15;101517.91;5032320;28;20145;-46
2023/12/02 09:39:25;;;;;;;59.88;20.48;;;;;;;4.15;64.04;101519.97;5035310;28;20364;-48
2023/12/02 09:41:57;;;;;;;57.47;19.83;;;;;;;4.30;64.56;101521.59;5034529;28;20034;-46
2023/12/02 09:44:32;;;;;;;57.10;19.92;;;;;;;4.46;63.70;101526.66;5032244;28;20099;-45
2023/12/02 09:47:04;;;;;;;55.50;19.90;;;;;;;4.74;63.43;101515.09;5032896;28;20042;-45
2023/12/02 09:50:04;;;;;;;59.38;21.42;;;;;;;4.44;62.96;101517.09;5031971;28;20065;-48
2023/12/02 09:52:51;;;;;;;59.38;20.88;;;;;;;4.26;64.27;101519.69;5031306;28;20048;-46
2023/12/02 09:55:35;;;;;;;51.47;20.27;;;;;;;4.48;64.21;101519.91;5031125;28;20121;-49
2023/12/02 09:58:00;;;;;;;55.45;20.27;;;;;;;4.76;63.14;101524.66;5031650;28;20129;-53
2023/12/02 10:00:50;;;;;;;53.60;19.92;;;;;;;4.94;62.99;101528.94;5030984;28;20478;-47
2023/12/02 10:03:46;;;;;;;54.05;20.58;;;;;;;4.55;63.41;101535.69;5032240;28;20128;-46
2023/12/02 10:06:32;;;;;;;55.33;19.52;;;;;;;4.79;62.62;101532.56;5032270;28;20029;-47
2023/12/02 10:09:09;;;;;;;53.38;19.73;;;;;;;4.76;62.69;101531.50;5032329;28;20495;-46
2023/12/02 10:12:12;;;;;;;55.80;20.05;;;;;;;4.65;63.21;101541.34;5030636;28;20115;-45
2023/12/02 10:14:41;;;;;;;53.03;19.67;;;;;;;4.80;62.69;101542.09;5030330;28;20025;-50
2023/12/02 10:17:08;;;;;;;48.70;19.23;;;;;;;4.83;62.39;101544.78;5030742;28;20124;-48
2023/12/02 10:19:52;;;;;;;58.17;21.23;;;;;;;4.69;62.33;101548.44;5030941;28;20558;-46
2023/12/02 10:22:19;;;;;;;57.65;20.25;;;;;;;4.81;63.22;101548.16;5030894;28;20111;-45
2023/12/02 10:24:58;;;;;;;55.45;20.73;;;;;;;4.63;63.65;101543.00;5031132;28;20033;-44
2023/12/02 10:27:25;;;;;;;53.30;19.30;;;;;;;4.89;63.67;101537.34;5030437;28;20029;-45
2023/12/02 10:30:12;;;;;;;55.10;19.63;;;;;;;5.05;63.13;101533.78;5030480;28;20475;-47
2023/12/02 10:32:43;;;;;;;57.17;20.88;;;;;;;5.18;63.10;101527.47;5030800;28;20029;-44
2023/12/02 10:35:35;;;;;;;54.75;20.75;;;;;;;5.29;62.89;101536.59;5030490;28;20045;-49
2023/12/02 10:38:24;;;;;;;57.75;21.38;;;;;;;5.27;63.34;101538.22;5032060;28;20050;-46
2023/12/02 10:41:20;;;;;;;60.83;21.38;;;;;;;5.01;63.66;101533.53;5030508;28;20567;-45
2023/12/02 10:43:51;;;;;;;55.95;20.67;;;;;;;4.89;64.90;101539.91;5027909;28;20087;-46
2023/12/02 10:46:17;;;;;;;55.45;20.98;;;;;;;5.43;64.00;101532.91;5030306;28;20049;-49
2023/12/02 10:48:44;;;;;;;59.40;21.98;;;;;;;5.69;63.67;101527.19;5030391;28;20560;-50
2023/12/02 10:51:10;;;;;;;57.70;21.83;;;;;;;5.78;63.73;101529.28;5030032;28;20460;-46
2023/12/02 10:53:37;;;;;;;60.47;21.92;;;;;;;5.85;63.33;101520.09;5030764;28;20029;-46
2023/12/02 10:56:10;;;;;;;58.20;22.88;;;;;;;6.16;62.99;101519.69;5030617;28;20645;-45
2023/12/02 10:58:38;;;;;;;54.70;22.45;;;;;;;6.39;62.90;101518.94;5030153;28;20033;-47
2023/12/02 11:01:07;;;;;;;54.95;21.25;;;;;;;6.46;62.31;101520.94;5030041;28;20036;-46
2023/12/02 11:04:12;;;;;;;50.72;21.05;;;;;;;6.34;61.70;101520.44;5029888;28;20581;-45
2023/12/02 11:06:40;;;;;;;56.42;21.63;;;;;;;6.42;61.13;101511.25;5029741;28;20110;-49
2023/12/02 11:09:23;;;;;;;57.67;22.35;;;;;;;6.69;61.27;101517.56;5030463;28;20084;-50
2023/12/02 11:11:48;;;;;;;54.33;21.52;;;;;;;6.41;61.40;101520.75;5030695;28;20056;-46
2023/12/02 11:14:20;;;;;;;52.10;21.35;;;;;;;6.63;61.33;101517.31;5030201;28;20041;-48
2023/12/02 11:17:09;;;;;;;55.35;22.05;;;;;;;6.88;60.97;101514.84;5029765;28;20045;-46